Latest Weather Observations for Edenhope

IDV60801

Issued at 1:31 pm EST Monday 25 May 2015 (issued every 30 minutes, with the page automatically refreshed every 10 minutes)

About weather observations | Map of weather stations | Latest weather observations for VIC | Other Formats
Station Details ID: 079099 Name: EDENHOPE AIRPORT Lat: -37.02 Lon: 141.27 Height: 155.0 m
Data from the previous 72 hours. | See also: Recent months at Edenhope
Date/Time
EST
Temp
°C
App
Temp
°C
Dew
Point
Rel
Hum
%
Delta-T
°C
Wind Press
QNH
hPa
Press
MSL
hPa
Rain
since 9 am
mm
Dir
 
Spd
km/h
Gust
km/h
Spd
kts
Gust
kts
25/01:30pm 17.5 15.6 7.5 52 5.1 N 7 13 4 7 - - 0.2
25/01:00pm 16.5 14.7 7.2 54 4.7 WNW 6 7 3 4 - - 0.2
25/12:30pm 15.9 14.0 6.6 54 4.6 WNW 6 9 3 5 - - 0.0
25/12:00pm 15.6 13.7 6.6 55 4.4 NW 6 7 3 4 - - 0.0
25/11:30am 15.2 13.5 7.5 60 3.8 NW 6 7 3 4 - - 0.0
25/11:00am 14.8 13.4 7.1 60 3.8 N 4 9 2 5 - - 0.0
25/10:30am 13.5 11.5 7.1 65 3.1 NNE 7 13 4 7 - - 0.0
25/10:00am 12.2 9.7 6.5 68 2.7 NNE 9 15 5 8 - - 0.0
25/09:30am 9.5 7.5 6.4 81 1.4 NE 6 9 3 5 - - 0.0
25/09:00am 8.8 6.7 5.9 82 1.3 NE 6 9 3 5 - - 0.0
25/08:30am 8.0 5.3 5.5 84 1.1 NE 9 15 5 8 - - 0.0
25/08:00am 7.8 4.6 5.3 84 1.1 ENE 11 15 6 8 - - 0.0
25/07:30am 7.6 4.8 5.1 84 1.1 ENE 9 11 5 6 - - 0.0
25/07:00am 7.6 4.0 5.1 84 1.1 ENE 13 15 7 8 - - 0.0
25/06:30am 7.7 4.9 5.2 84 1.1 ENE 9 11 5 6 - - 0.0
25/06:00am 7.8 5.4 5.3 84 1.1 ENE 7 9 4 5 - - 0.0
25/05:30am 7.9 5.2 5.5 85 1.1 ENE 9 11 5 6 - - 0.0
25/05:00am 7.6 5.5 5.6 87 0.9 E 6 9 3 5 - - 0.0
25/04:30am 7.8 5.9 5.1 83 1.2 ESE 4 6 2 3 - - 0.0
25/04:00am 8.5 6.7 5.3 80 1.4 NE 4 4 2 2 - - 0.0
25/03:30am 8.4 6.2 5.2 80 1.4 N 6 7 3 4 - - 0.0
25/03:00am 8.8 6.0 5.2 78 1.6 ENE 9 13 5 7 - - 0.0
25/02:30am 7.9 5.7 5.4 84 1.1 NNE 6 9 3 5 - - 0.0
25/02:00am 7.5 5.0 4.8 83 1.2 NE 7 9 4 5 - - 0.0
25/01:30am 7.9 5.6 4.7 80 1.4 E 6 7 3 4 - - 0.0
25/01:00am 8.8 6.3 5.0 77 1.7 E 7 13 4 7 - - 0.0
25/12:30am 9.0 6.2 5.2 77 1.7 NE 9 13 5 7 - - 0.0
25/12:00am 7.9 5.6 5.0 82 1.3 NE 6 7 3 4 - - 0.0
 
Date/Time
EST
Temp
°C
App
Temp
°C
Dew
Point
Rel
Hum
%
Delta-T
°C
Wind Press
QNH
hPa
Press
MSL
hPa
Rain
since 9 am
mm
Dir
 
Spd
km/h
Gust
km/h
Spd
kts
Gust
kts
24/11:30pm 8.8 6.3 5.0 77 1.7 NE 7 11 4 6 - - 0.0
24/11:00pm 9.1 6.7 5.3 77 1.7 NE 7 9 4 5 - - 0.0
24/10:30pm 9.4 7.0 5.4 76 1.8 NE 7 9 4 5 - - 0.0
24/10:00pm 8.9 6.6 5.5 79 1.6 NNE 7 9 4 5 - - 0.0
24/09:30pm 9.4 6.6 5.2 75 1.9 NE 9 11 5 6 - - 0.0
24/09:00pm 9.2 6.8 5.4 77 1.7 NE 7 9 4 5 - - 0.0
24/08:30pm 9.4 7.0 5.4 76 1.8 NE 7 9 4 5 - - 0.0
24/08:00pm 9.7 7.5 5.1 73 2.1 NE 6 7 3 4 - - 0.0
24/07:30pm 10.3 8.0 5.5 72 2.2 NNE 7 9 4 5 - - 0.0
24/07:00pm 10.5 8.3 5.5 71 2.3 NE 6 7 3 4 - - 0.0
24/06:30pm 10.4 8.1 5.8 73 2.1 NE 7 9 4 5 - - 0.0
24/06:00pm 9.9 7.8 6.6 80 1.6 ENE 7 9 4 5 - - 0.0
24/05:30pm 10.7 8.8 6.5 75 2.0 ESE 6 6 3 3 - - 0.0
24/05:00pm 11.8 10.7 6.7 71 2.4 E 2 4 1 2 - - 0.0
24/04:30pm 12.5 10.8 6.1 65 3.0 NE 4 6 2 3 - - 0.0
24/04:00pm 12.8 10.5 5.7 62 3.4 NNE 7 13 4 7 - - 0.0
24/03:30pm 14.4 11.4 6.0 57 4.0 N 11 17 6 9 - - 0.0
24/03:00pm 13.6 11.5 6.5 62 3.4 NNE 7 15 4 8 - - 0.0
24/02:30pm 13.4 11.2 6.3 62 3.4 N 7 13 4 7 - - 0.0
24/02:00pm 12.8 10.6 6.4 65 3.1 NNW 7 11 4 6 - - 0.0
24/01:30pm 12.6 10.1 6.4 66 3.0 NNW 9 15 5 8 - - 0.0
24/01:00pm 12.4 9.9 6.7 68 2.7 N 9 15 5 8 - - 0.0
24/12:30pm 12.5 10.3 6.1 65 3.0 NNW 7 13 4 7 - - 0.0
24/12:00pm 11.6 9.5 6.5 71 2.4 N 7 15 4 8 - - 0.0
24/11:30am 10.9 8.5 6.8 76 2.0 NNE 9 13 5 7 - - 0.0
24/11:00am 9.0 7.2 7.0 87 0.9 NE 6 9 3 5 - - 0.0
24/10:30am 7.8 5.6 6.3 90 0.7 NE 7 11 4 6 - - 0.0
24/10:00am 7.1 4.5 6.2 94 0.4 NE 9 13 5 7 - - 0.0
24/09:30am 6.2 3.9 5.8 97 0.2 ENE 7 11 4 6 - - 0.0
24/09:00am 5.1 2.2 4.8 98 0.1 ENE 9 11 5 6 - - 0.0
24/08:30am 4.3 1.7 4.0 98 0.1 ENE 7 11 4 6 - - 0.0
24/08:00am 4.0 0.5 3.7 98 0.1 ENE 11 15 6 8 - - 0.0
24/07:30am 3.5 0.7 3.2 98 0.1 ENE 7 9 4 5 - - 0.0
24/07:00am 3.6 0.4 3.3 98 0.1 ENE 9 13 5 7 - - 0.0
24/06:30am 3.2 0.0 2.9 98 0.1 ENE 9 13 5 7 - - 0.0
24/06:00am 2.5 -0.3 2.2 98 0.1 ENE 6 7 3 4 - - 0.0
24/05:30am 1.9 -1.0 1.6 98 0.1 ENE 6 9 3 5 - - 0.0
24/05:00am 1.0 -1.3 0.6 97 0.1 NNW 2 4 1 2 - - 0.0
24/04:30am 1.6 -0.9 1.3 98 0.1 E 4 6 2 3 - - 0.0
24/04:00am 2.1 -0.7 1.8 98 0.1 E 6 7 3 4 - - 0.0
24/03:30am 2.3 -0.5 1.9 97 0.2 ENE 6 6 3 3 - - 0.0
24/03:00am 2.5 0.5 2.1 97 0.2 ENE 2 4 1 2 - - 0.0
24/02:30am 3.0 1.4 2.6 97 0.2 CALM 0 0 0 0 - - 0.0
24/02:00am 2.8 1.2 2.4 97 0.2 CALM 0 2 0 1 - - 0.0
24/01:30am 2.8 0.1 2.4 97 0.2 ENE 6 9 3 5 - - 0.0
24/01:00am 2.9 0.2 2.5 97 0.2 ENE 6 9 3 5 - - 0.0
24/12:30am 2.6 0.2 2.2 97 0.2 E 4 6 2 3 - - 0.0
24/12:00am 3.3 1.4 2.9 97 0.2 E 2 6 1 3 - - 0.0
 
Date/Time
EST
Temp
°C
App
Temp
°C
Dew
Point
Rel
Hum
%
Delta-T
°C
Wind Press
QNH
hPa
Press
MSL
hPa
Rain
since 9 am
mm
Dir
 
Spd
km/h
Gust
km/h
Spd
kts
Gust
kts
23/11:30pm 2.8 0.8 2.2 96 0.2 ENE 2 4 1 2 - - 0.0
23/11:00pm 3.9 1.7 3.3 96 0.2 ENE 4 6 2 3 - - 0.0
23/10:30pm 3.5 1.2 2.9 96 0.2 E 4 6 2 3 - - 0.0
23/10:00pm 3.4 1.5 2.7 95 0.3 E 2 6 1 3 - - 0.0
23/09:30pm 4.1 2.3 3.4 95 0.3 E 2 2 1 1 - - 0.0
23/09:00pm 4.9 3.6 4.2 95 0.3 CALM 0 0 0 0 - - 0.0
23/08:30pm 4.7 3.3 3.8 94 0.4 CALM 0 0 0 0 - - 0.0
23/08:00pm 5.4 4.2 4.4 93 0.4 CALM 0 0 0 0 - - 0.0
23/07:30pm 6.3 4.1 5.3 93 0.4 SSE 6 6 3 3 - - 0.0
23/07:00pm 7.6 6.7 6.1 90 0.7 CALM 0 0 0 0 - - 0.0
23/06:30pm 8.0 7.1 6.1 88 0.9 CALM 0 0 0 0 - - 0.0
23/06:00pm 8.7 7.8 6.0 83 1.2 CALM 0 0 0 0 - - 0.0
23/05:30pm 10.2 9.3 6.2 76 1.9 CALM 0 0 0 0 - - 0.0
23/05:00pm 11.6 10.4 6.5 71 2.4 WSW 2 4 1 2 - - 0.0
23/04:30pm 12.3 10.8 6.6 68 2.7 WSW 4 4 2 2 - - 0.0
23/04:00pm 13.1 11.5 6.5 64 3.2 WNW 4 7 2 4 - - 0.0
23/03:30pm 13.5 12.0 6.6 63 3.3 SW 4 6 2 3 - - 0.0
23/03:00pm 13.6 12.4 6.5 62 3.4 W 2 7 1 4 - - 0.0
23/02:30pm 12.7 11.0 5.8 63 3.3 WNW 4 6 2 3 - - 0.0
23/02:00pm 12.4 10.2 6.0 65 3.0 WNW 7 11 4 6 - - 0.0
23/01:30pm 12.4 10.5 6.5 67 2.8 W 6 9 3 5 - - 0.0
23/01:00pm 12.9 11.7 6.5 65 3.1 NNW 2 7 1 4 - - 0.0
23/12:30pm 11.5 9.8 5.8 68 2.7 E 4 6 2 3 - - 0.0
23/12:00pm 11.1 9.4 5.8 70 2.5 ENE 4 6 2 3 - - 0.0
23/11:30am 10.2 8.4 5.4 72 2.2 E 4 7 2 4 - - 0.0
23/11:00am 9.3 7.5 5.3 76 1.8 ESE 4 9 2 5 - - 0.0
23/10:30am 8.6 6.3 5.5 81 1.4 ESE 7 11 4 6 - - 0.0
23/10:00am 7.7 5.4 5.5 86 1.0 SE 7 11 4 6 - - 0.0
23/09:30am 6.2 5.2 5.8 97 0.2 CALM 0 2 0 1 - - 0.0
23/09:00am 4.9 3.7 4.6 98 0.1 CALM 0 0 0 0 - - 0.2
23/08:30am 3.2 1.7 2.8 97 0.2 CALM 0 0 0 0 - - 0.2
23/08:00am 2.0 -0.5 1.6 97 0.2 SSE 4 6 2 3 - - 0.2
23/07:30am 1.5 -1.1 1.1 97 0.2 S 4 6 2 3 - - 0.2
23/07:00am 1.5 -0.3 1.1 97 0.2 CALM 0 0 0 0 - - 0.2
23/06:30am 1.3 -0.5 0.9 97 0.2 CALM 0 0 0 0 - - 0.2
23/06:00am 1.9 0.1 1.5 97 0.2 CALM 0 0 0 0 - - 0.2
23/05:30am 2.3 0.6 1.7 96 0.2 CALM 0 0 0 0 - - 0.2
23/05:00am 1.9 -0.3 1.3 96 0.2 SSW 2 2 1 1 - - 0.2
23/04:30am 2.4 0.7 1.8 96 0.2 CALM 0 0 0 0 - - 0.0
23/04:00am 2.6 0.9 2.0 96 0.2 CALM 0 0 0 0 - - 0.0
23/03:30am 3.2 1.6 2.5 95 0.3 CALM 0 0 0 0 - - 0.0
23/03:00am 3.0 1.3 2.1 94 0.4 CALM 0 0 0 0 - - 0.0
23/02:30am 3.9 2.3 2.7 92 0.5 CALM 0 0 0 0 - - 0.0
23/02:00am 4.8 3.4 3.3 90 0.6 CALM 0 0 0 0 - - 0.0
23/01:30am 5.7 3.9 3.7 87 0.8 SSE 2 4 1 2 - - 0.0
23/01:00am 6.8 4.4 4.1 83 1.2 SE 6 6 3 3 - - 0.0
23/12:30am 7.2 4.6 4.2 81 1.3 SE 7 11 4 6 - - 0.0
23/12:00am 7.9 5.4 4.5 79 1.5 SE 7 11 4 6 - - 0.0
 
Date/Time
EST
Temp
°C
App
Temp
°C
Dew
Point
Rel
Hum
%
Delta-T
°C
Wind Press
QNH
hPa
Press
MSL
hPa
Rain
since 9 am
mm
Dir
 
Spd
km/h
Gust
km/h
Spd
kts
Gust
kts
22/11:30pm 8.7 4.7 4.7 76 1.8 SE 15 22 8 12 - - 0.0
22/11:00pm 9.1 5.9 5.1 76 1.8 SE 11 17 6 9 - - 0.0
22/10:30pm 9.1 6.2 4.9 75 1.9 SE 9 15 5 8 - - 0.0
22/10:00pm 9.2 4.8 4.8 74 2.0 SE 17 26 9 14 - - 0.0
22/09:30pm 9.3 5.3 4.7 73 2.1 SE 15 26 8 14 - - 0.0
22/09:00pm 9.4 6.1 4.8 73 2.1 SE 11 19 6 10 - - 0.0
22/08:30pm 9.5 5.5 4.7 72 2.2 SE 15 24 8 13 - - 0.0
22/08:00pm 10.0 6.0 5.0 71 2.3 SE 15 24 8 13 - - 0.0
22/07:30pm 10.2 6.3 5.2 71 2.3 SE 15 24 8 13 - - 0.0
22/07:00pm 10.2 7.1 5.4 72 2.2 SSE 11 20 6 11 - - 0.0
22/06:30pm 10.4 6.8 5.2 70 2.4 SSE 13 20 7 11 - - 0.0
22/06:00pm 10.5 6.2 5.3 70 2.4 S 17 24 9 13 - - 0.0
22/05:30pm 10.7 6.1 5.5 70 2.4 SE 19 26 10 14 - - 0.0
22/05:00pm 11.0 7.1 5.5 69 2.6 SSE 15 22 8 12 - - 0.0
22/04:30pm 11.3 7.1 5.8 69 2.6 SSE 17 26 9 14 - - 0.0
22/04:00pm 11.6 7.1 5.9 68 2.7 SSE 19 24 10 13 - - 0.0
22/03:30pm 11.7 7.2 6.0 68 2.7 SSE 19 28 10 15 - - 0.0
22/03:00pm 11.9 7.8 6.2 68 2.7 SSE 17 24 9 13 - - 0.0
22/02:30pm 12.2 7.7 6.3 67 2.8 SE 19 32 10 17 - - 0.0
22/02:00pm 12.1 8.0 6.2 67 2.8 SE 17 26 9 14 - - 0.0

Other Formats:

Comma delimited format used in spreadsheet applications
http://www.bom.gov.au/fwo/IDV60801/IDV60801.95832.axf

JavaScript Object Notation format (JSON) in row-major order
http://www.bom.gov.au/fwo/IDV60801/IDV60801.95832.json